SBI weather

Sambailo Airport
Koundara, Boké Region, Guinea

Public forecast

Using degrees Celsius for public forecast. Weather courtesy of forecast.io.

Closest aviation weather report (METAR) to Sambailo Airport

Closest report is Kédougou Airport, 66.7 nm (123.5 km) E. Retrieved 2020/07/14 00:00 UTC (15 minutes ago):

GOTK 140000Z 00000KT 9999 TS FEW030CB SCT130 23/22 Q1012

Closest aviation forecast (TAF) to Sambailo Airport

Forecast is more than 6 hours old.

Closest forecast is Osvaldo Vieira International Airport, 140.7 nm (260.6 km) WSW. Retrieved 2020/07/13 18:00 UTC (6 hours ago):

TAF GGOV 131700Z 1318/1418 29005KT 9999 SCT014 PROB30 TEMPO 1322/1402 3000 TSRA SCT005 BKN014 FEW020CB